sensor_id;sensor_type;location;lat;lon;timestamp;P1;P2;P0
69746;PMS7003;57018;50.278;19.134;2022-08-21T00:00:28;19.25;18.00;12.75
69746;PMS7003;57018;50.278;19.134;2022-08-21T00:02:57;27.75;21.00;15.75
69746;PMS7003;57018;50.278;19.134;2022-08-21T00:05:26;23.50;21.25;13.25
69746;PMS7003;57018;50.278;19.134;2022-08-21T00:07:53;28.75;25.50;18.50
69746;PMS7003;57018;50.278;19.134;2022-08-21T00:10:20;20.75;20.25;15.50
69746;PMS7003;57018;50.278;19.134;2022-08-21T00:12:48;26.00;24.00;15.75
69746;PMS7003;57018;50.278;19.134;2022-08-21T00:15:18;25.00;23.25;16.50
69746;PMS7003;57018;50.278;19.134;2022-08-21T00:17:46;27.25;24.00;18.00
69746;PMS7003;57018;50.278;19.134;2022-08-21T00:20:13;26.25;23.25;15.00
69746;PMS7003;57018;50.278;19.134;2022-08-21T00:22:42;25.75;22.75;16.25
69746;PMS7003;57018;50.278;19.134;2022-08-21T00:25:10;22.75;21.75;16.50
69746;PMS7003;57018;50.278;19.134;2022-08-21T00:27:38;29.25;25.00;16.75
69746;PMS7003;57018;50.278;19.134;2022-08-21T00:30:07;26.50;25.00;16.25
69746;PMS7003;57018;50.278;19.134;2022-08-21T00:32:36;22.00;20.75;13.25
69746;PMS7003;57018;50.278;19.134;2022-08-21T00:35:05;33.25;28.75;18.75
69746;PMS7003;57018;50.278;19.134;2022-08-21T00:37:33;31.50;26.50;18.75
69746;PMS7003;57018;50.278;19.134;2022-08-21T00:39:59;29.50;25.50;17.50
69746;PMS7003;57018;50.278;19.134;2022-08-21T00:42:25;30.50;25.00;18.00
69746;PMS7003;57018;50.278;19.134;2022-08-21T00:44:53;26.25;24.50;17.00
69746;PMS7003;57018;50.278;19.134;2022-08-21T00:47:20;26.00;25.00;17.50
69746;PMS7003;57018;50.278;19.134;2022-08-21T00:49:46;32.00;27.00;17.75
69746;PMS7003;57018;50.278;19.134;2022-08-21T00:52:17;30.50;27.50;18.50
69746;PMS7003;57018;50.278;19.134;2022-08-21T00:54:42;29.75;26.25;17.25
69746;PMS7003;57018;50.278;19.134;2022-08-21T00:57:10;31.50;30.50;19.50
69746;PMS7003;57018;50.278;19.134;2022-08-21T00:59:38;35.00;31.00;19.75
69746;PMS7003;57018;50.278;19.134;2022-08-21T01:02:08;29.75;27.75;18.25
69746;PMS7003;57018;50.278;19.134;2022-08-21T01:04:36;31.75;29.75;20.25
69746;PMS7003;57018;50.278;19.134;2022-08-21T01:07:03;35.75;33.75;19.75
69746;PMS7003;57018;50.278;19.134;2022-08-21T01:09:30;32.50;29.75;19.25
69746;PMS7003;57018;50.278;19.134;2022-08-21T01:11:56;31.75;29.25;18.25
69746;PMS7003;57018;50.278;19.134;2022-08-21T01:14:24;30.50;29.00;19.00
69746;PMS7003;57018;50.278;19.134;2022-08-21T01:16:51;31.50;28.50;18.75
69746;PMS7003;57018;50.278;19.134;2022-08-21T01:19:20;37.50;33.00;21.75
69746;PMS7003;57018;50.278;19.134;2022-08-21T01:21:46;34.00;32.25;20.00
69746;PMS7003;57018;50.278;19.134;2022-08-21T01:24:13;37.75;33.50;23.00
69746;PMS7003;57018;50.278;19.134;2022-08-21T01:26:39;36.00;30.75;20.50
69746;PMS7003;57018;50.278;19.134;2022-08-21T01:29:52;32.50;28.25;19.00
69746;PMS7003;57018;50.278;19.134;2022-08-21T01:31:51;30.50;29.50;18.75
69746;PMS7003;57018;50.278;19.134;2022-08-21T01:34:17;36.75;33.00;21.25
69746;PMS7003;57018;50.278;19.134;2022-08-21T01:36:44;37.25;30.50;19.50
69746;PMS7003;57018;50.278;19.134;2022-08-21T01:39:12;35.00;32.00;20.00
69746;PMS7003;57018;50.278;19.134;2022-08-21T01:41:40;36.50;30.50;19.25
69746;PMS7003;57018;50.278;19.134;2022-08-21T01:44:06;33.25;28.50;18.25
69746;PMS7003;57018;50.278;19.134;2022-08-21T01:46:32;31.00;28.25;17.50
69746;PMS7003;57018;50.278;19.134;2022-08-21T01:48:59;35.25;27.25;18.75
69746;PMS7003;57018;50.278;19.134;2022-08-21T01:51:25;32.25;31.25;19.25
69746;PMS7003;57018;50.278;19.134;2022-08-21T01:53:51;29.00;26.00;17.50
69746;PMS7003;57018;50.278;19.134;2022-08-21T01:56:17;30.50;24.50;16.75
69746;PMS7003;57018;50.278;19.134;2022-08-21T01:58:45;27.75;26.75;17.75
69746;PMS7003;57018;50.278;19.134;2022-08-21T02:01:12;28.25;25.75;17.25
69746;PMS7003;57018;50.278;19.134;2022-08-21T02:03:39;32.00;30.50;19.50
69746;PMS7003;57018;50.278;19.134;2022-08-21T02:06:07;31.75;26.00;16.75
69746;PMS7003;57018;50.278;19.134;2022-08-21T02:08:35;29.00;25.75;17.25
69746;PMS7003;57018;50.278;19.134;2022-08-21T02:11:01;34.00;26.00;18.50
69746;PMS7003;57018;50.278;19.134;2022-08-21T02:13:27;27.50;23.25;15.75
69746;PMS7003;57018;50.278;19.134;2022-08-21T02:15:54;29.50;27.00;17.50
69746;PMS7003;57018;50.278;19.134;2022-08-21T02:18:20;29.00;25.50;17.50
69746;PMS7003;57018;50.278;19.134;2022-08-21T02:20:47;24.50;22.75;14.75
69746;PMS7003;57018;50.278;19.134;2022-08-21T02:23:14;26.25;25.25;15.75
69746;PMS7003;57018;50.278;19.134;2022-08-21T02:25:41;28.25;25.75;17.50
69746;PMS7003;57018;50.278;19.134;2022-08-21T02:28:09;34.00;26.75;16.75
69746;PMS7003;57018;50.278;19.134;2022-08-21T02:30:38;25.25;25.00;17.50
69746;PMS7003;57018;50.278;19.134;2022-08-21T02:33:06;27.00;25.25;16.75
69746;PMS7003;57018;50.278;19.134;2022-08-21T02:35:35;27.25;24.75;16.00
69746;PMS7003;57018;50.278;19.134;2022-08-21T02:38:05;31.50;28.75;18.25
69746;PMS7003;57018;50.278;19.134;2022-08-21T02:40:34;30.25;24.25;16.00
69746;PMS7003;57018;50.278;19.134;2022-08-21T02:43:03;29.50;24.50;16.25
69746;PMS7003;57018;50.278;19.134;2022-08-21T02:45:30;29.00;26.50;17.00
69746;PMS7003;57018;50.278;19.134;2022-08-21T02:47:58;33.50;28.75;18.25
69746;PMS7003;57018;50.278;19.134;2022-08-21T02:50:28;23.00;20.25;15.00
69746;PMS7003;57018;50.278;19.134;2022-08-21T02:52:56;31.25;25.75;16.50
69746;PMS7003;57018;50.278;19.134;2022-08-21T02:55:23;31.50;24.00;14.25
69746;PMS7003;57018;50.278;19.134;2022-08-21T02:57:52;25.00;23.00;15.50
69746;PMS7003;57018;50.278;19.134;2022-08-21T03:00:21;29.00;25.75;15.00
69746;PMS7003;57018;50.278;19.134;2022-08-21T03:02:49;30.50;24.50;15.00
69746;PMS7003;57018;50.278;19.134;2022-08-21T03:05:16;30.00;23.25;15.75
69746;PMS7003;57018;50.278;19.134;2022-08-21T03:07:43;19.75;18.25;12.75
69746;PMS7003;57018;50.278;19.134;2022-08-21T03:10:11;21.50;20.00;11.00
69746;PMS7003;57018;50.278;19.134;2022-08-21T03:12:37;29.50;26.00;18.00
69746;PMS7003;57018;50.278;19.134;2022-08-21T03:15:05;28.25;28.00;17.75
69746;PMS7003;57018;50.278;19.134;2022-08-21T03:17:33;24.00;22.00;15.50
69746;PMS7003;57018;50.278;19.134;2022-08-21T03:20:00;23.25;23.25;12.75
69746;PMS7003;57018;50.278;19.134;2022-08-21T03:22:28;30.50;26.75;18.50
69746;PMS7003;57018;50.278;19.134;2022-08-21T03:24:54;37.75;31.75;17.50
69746;PMS7003;57018;50.278;19.134;2022-08-21T03:27:22;27.25;25.00;16.25
69746;PMS7003;57018;50.278;19.134;2022-08-21T03:29:50;29.50;27.25;17.25
69746;PMS7003;57018;50.278;19.134;2022-08-21T03:32:16;32.00;29.50;17.75
69746;PMS7003;57018;50.278;19.134;2022-08-21T03:34:42;34.25;32.00;17.75
69746;PMS7003;57018;50.278;19.134;2022-08-21T03:37:09;29.00;26.50;16.00
69746;PMS7003;57018;50.278;19.134;2022-08-21T03:39:36;34.25;31.00;18.25
69746;PMS7003;57018;50.278;19.134;2022-08-21T03:42:02;25.00;25.00;17.00
69746;PMS7003;57018;50.278;19.134;2022-08-21T03:44:30;23.75;22.50;11.50
69746;PMS7003;57018;50.278;19.134;2022-08-21T03:46:57;24.50;22.75;16.50
69746;PMS7003;57018;50.278;19.134;2022-08-21T03:49:24;32.50;27.75;18.25
69746;PMS7003;57018;50.278;19.134;2022-08-21T03:51:51;31.00;27.00;18.00
69746;PMS7003;57018;50.278;19.134;2022-08-21T03:54:17;33.50;28.50;18.00
69746;PMS7003;57018;50.278;19.134;2022-08-21T03:56:44;31.25;26.50;16.50
69746;PMS7003;57018;50.278;19.134;2022-08-21T03:59:10;30.50;30.25;19.75
69746;PMS7003;57018;50.278;19.134;2022-08-21T04:01:37;25.50;24.00;16.75
69746;PMS7003;57018;50.278;19.134;2022-08-21T04:04:04;32.25;29.75;20.00
69746;PMS7003;57018;50.278;19.134;2022-08-21T04:06:31;26.00;25.50;16.50
69746;PMS7003;57018;50.278;19.134;2022-08-21T04:08:58;24.75;24.75;17.25
69746;PMS7003;57018;50.278;19.134;2022-08-21T04:11:24;31.25;24.75;12.50
69746;PMS7003;57018;50.278;19.134;2022-08-21T04:13:50;29.75;28.25;19.50
69746;PMS7003;57018;50.278;19.134;2022-08-21T04:16:16;34.50;30.75;20.00
69746;PMS7003;57018;50.278;19.134;2022-08-21T04:18:44;27.75;27.75;17.50
69746;PMS7003;57018;50.278;19.134;2022-08-21T04:21:11;31.00;27.25;17.75
69746;PMS7003;57018;50.278;19.134;2022-08-21T04:23:37;34.00;25.25;17.75
69746;PMS7003;57018;50.278;19.134;2022-08-21T04:26:03;26.75;23.75;15.25
69746;PMS7003;57018;50.278;19.134;2022-08-21T04:28:29;24.75;23.25;15.50
69746;PMS7003;57018;50.278;19.134;2022-08-21T04:30:56;38.25;33.25;18.50
69746;PMS7003;57018;50.278;19.134;2022-08-21T04:33:22;32.50;29.75;19.75
69746;PMS7003;57018;50.278;19.134;2022-08-21T04:35:50;35.50;31.50;20.00
69746;PMS7003;57018;50.278;19.134;2022-08-21T04:38:16;35.00;31.00;18.50
69746;PMS7003;57018;50.278;19.134;2022-08-21T04:40:43;31.25;26.75;18.00
69746;PMS7003;57018;50.278;19.134;2022-08-21T04:43:09;36.00;28.50;18.75
69746;PMS7003;57018;50.278;19.134;2022-08-21T04:45:37;40.75;34.00;21.25
69746;PMS7003;57018;50.278;19.134;2022-08-21T04:48:07;34.75;32.00;19.75
69746;PMS7003;57018;50.278;19.134;2022-08-21T04:50:43;33.25;31.00;20.50
69746;PMS7003;57018;50.278;19.134;2022-08-21T04:56:01;30.25;29.25;20.25
69746;PMS7003;57018;50.278;19.134;2022-08-21T04:58:29;29.75;26.50;17.25
69746;PMS7003;57018;50.278;19.134;2022-08-21T05:00:58;28.50;27.50;17.75
69746;PMS7003;57018;50.278;19.134;2022-08-21T05:03:27;31.50;30.00;18.75
69746;PMS7003;57018;50.278;19.134;2022-08-21T05:05:56;36.25;29.00;19.50
69746;PMS7003;57018;50.278;19.134;2022-08-21T05:08:23;38.00;33.25;19.25
69746;PMS7003;57018;50.278;19.134;2022-08-21T05:10:53;30.25;28.75;18.25
69746;PMS7003;57018;50.278;19.134;2022-08-21T05:13:20;34.50;30.75;18.75
69746;PMS7003;57018;50.278;19.134;2022-08-21T05:15:46;35.75;33.00;21.00
69746;PMS7003;57018;50.278;19.134;2022-08-21T05:18:13;30.75;29.00;19.75
69746;PMS7003;57018;50.278;19.134;2022-08-21T05:20:39;33.25;31.25;20.00
69746;PMS7003;57018;50.278;19.134;2022-08-21T05:23:12;35.00;29.75;19.75
69746;PMS7003;57018;50.278;19.134;2022-08-21T05:25:35;31.00;25.50;15.00
69746;PMS7003;57018;50.278;19.134;2022-08-21T05:28:01;26.50;24.75;16.00
69746;PMS7003;57018;50.278;19.134;2022-08-21T05:30:27;31.00;30.50;17.50
69746;PMS7003;57018;50.278;19.134;2022-08-21T05:32:57;35.00;30.75;20.50
69746;PMS7003;57018;50.278;19.134;2022-08-21T05:35:25;35.75;34.00;20.75
69746;PMS7003;57018;50.278;19.134;2022-08-21T05:37:53;39.75;34.00;21.00
69746;PMS7003;57018;50.278;19.134;2022-08-21T05:40:20;33.50;31.00;21.25
69746;PMS7003;57018;50.278;19.134;2022-08-21T05:42:46;35.50;31.50;19.00
69746;PMS7003;57018;50.278;19.134;2022-08-21T05:45:12;37.25;34.50;21.25
69746;PMS7003;57018;50.278;19.134;2022-08-21T05:47:38;35.50;32.25;21.25
69746;PMS7003;57018;50.278;19.134;2022-08-21T05:50:05;36.50;32.50;21.25
69746;PMS7003;57018;50.278;19.134;2022-08-21T05:52:32;38.50;33.25;21.50
69746;PMS7003;57018;50.278;19.134;2022-08-21T05:54:58;37.50;32.25;21.50
69746;PMS7003;57018;50.278;19.134;2022-08-21T05:57:25;38.25;34.25;20.75
69746;PMS7003;57018;50.278;19.134;2022-08-21T05:59:51;35.75;33.00;21.00
69746;PMS7003;57018;50.278;19.134;2022-08-21T06:02:18;39.75;35.00;20.00
69746;PMS7003;57018;50.278;19.134;2022-08-21T06:04:45;35.25;33.00;20.75
69746;PMS7003;57018;50.278;19.134;2022-08-21T06:07:12;37.75;32.25;21.75
69746;PMS7003;57018;50.278;19.134;2022-08-21T06:09:39;35.00;31.00;21.50
69746;PMS7003;57018;50.278;19.134;2022-08-21T06:12:11;38.50;33.75;21.50
69746;PMS7003;57018;50.278;19.134;2022-08-21T06:14:35;34.00;32.25;21.50
69746;PMS7003;57018;50.278;19.134;2022-08-21T06:17:05;32.25;30.00;20.50
69746;PMS7003;57018;50.278;19.134;2022-08-21T06:19:33;41.00;36.50;22.25
69746;PMS7003;57018;50.278;19.134;2022-08-21T06:22:00;40.25;33.75;24.25
69746;PMS7003;57018;50.278;19.134;2022-08-21T06:24:26;38.50;33.75;22.50
69746;PMS7003;57018;50.278;19.134;2022-08-21T06:26:52;41.00;34.25;21.75
69746;PMS7003;57018;50.278;19.134;2022-08-21T06:29:19;41.00;33.00;22.75
69746;PMS7003;57018;50.278;19.134;2022-08-21T06:31:46;37.75;32.75;20.50
69746;PMS7003;57018;50.278;19.134;2022-08-21T06:34:14;36.00;33.25;19.00
69746;PMS7003;57018;50.278;19.134;2022-08-21T06:36:41;36.25;31.50;21.25
69746;PMS7003;57018;50.278;19.134;2022-08-21T06:39:07;38.00;33.25;21.25
69746;PMS7003;57018;50.278;19.134;2022-08-21T06:41:33;41.25;33.25;21.25
69746;PMS7003;57018;50.278;19.134;2022-08-21T06:44:00;36.00;32.50;21.50
69746;PMS7003;57018;50.278;19.134;2022-08-21T06:46:27;35.50;31.75;20.50
69746;PMS7003;57018;50.278;19.134;2022-08-21T06:48:55;43.00;36.00;21.25
69746;PMS7003;57018;50.278;19.134;2022-08-21T06:51:21;39.25;33.25;21.75
69746;PMS7003;57018;50.278;19.134;2022-08-21T06:53:48;36.50;31.25;20.50
69746;PMS7003;57018;50.278;19.134;2022-08-21T06:56:15;39.25;33.75;21.50
69746;PMS7003;57018;50.278;19.134;2022-08-21T06:58:41;36.00;33.00;20.75
69746;PMS7003;57018;50.278;19.134;2022-08-21T07:01:07;37.50;32.25;21.50
69746;PMS7003;57018;50.278;19.134;2022-08-21T07:03:38;43.25;36.50;23.25
69746;PMS7003;57018;50.278;19.134;2022-08-21T07:06:04;32.50;31.00;19.25
69746;PMS7003;57018;50.278;19.134;2022-08-21T07:08:31;13.50;13.00;9.50
69746;PMS7003;57018;50.278;19.134;2022-08-21T07:10:58;13.25;10.00;7.00
69746;PMS7003;57018;50.278;19.134;2022-08-21T07:13:26;5.25;4.50;4.00
69746;PMS7003;57018;50.278;19.134;2022-08-21T07:15:53;4.25;4.00;3.00
69746;PMS7003;57018;50.278;19.134;2022-08-21T07:18:19;4.75;3.25;2.00
69746;PMS7003;57018;50.278;19.134;2022-08-21T07:20:46;6.50;4.00;3.00
69746;PMS7003;57018;50.278;19.134;2022-08-21T07:23:26;3.00;3.00;2.00
69746;PMS7003;57018;50.278;19.134;2022-08-21T07:26:00;2.00;2.00;1.00
69746;PMS7003;57018;50.278;19.134;2022-08-21T07:28:27;1.00;1.00;1.00
69746;PMS7003;57018;50.278;19.134;2022-08-21T07:30:54;1.25;1.25;1.25
69746;PMS7003;57018;50.278;19.134;2022-08-21T07:33:23;1.75;1.75;0.75
69746;PMS7003;57018;50.278;19.134;2022-08-21T07:35:51;1.75;1.75;1.00
69746;PMS7003;57018;50.278;19.134;2022-08-21T07:38:17;1.25;1.25;1.00
69746;PMS7003;57018;50.278;19.134;2022-08-21T07:40:44;2.00;2.00;0.75
69746;PMS7003;57018;50.278;19.134;2022-08-21T07:43:12;1.00;1.00;0.75
69746;PMS7003;57018;50.278;19.134;2022-08-21T07:45:38;1.25;1.25;1.00
69746;PMS7003;57018;50.278;19.134;2022-08-21T07:48:04;1.00;1.00;1.00
69746;PMS7003;57018;50.278;19.134;2022-08-21T07:50:30;1.00;1.00;0.00
69746;PMS7003;57018;50.278;19.134;2022-08-21T07:52:56;2.00;2.00;1.25
69746;PMS7003;57018;50.278;19.134;2022-08-21T07:55:23;1.00;1.00;1.00
69746;PMS7003;57018;50.278;19.134;2022-08-21T07:57:49;2.25;1.00;0.00
69746;PMS7003;57018;50.278;19.134;2022-08-21T08:00:17;0.25;0.25;0.25
69746;PMS7003;57018;50.278;19.134;2022-08-21T08:02:45;1.00;1.00;0.00
69746;PMS7003;57018;50.278;19.134;2022-08-21T08:05:15;0.00;0.00;0.00
69746;PMS7003;57018;50.278;19.134;2022-08-21T08:07:42;0.25;0.00;0.00
69746;PMS7003;57018;50.278;19.134;2022-08-21T08:10:09;0.00;0.00;0.00
69746;PMS7003;57018;50.278;19.134;2022-08-21T08:12:37;0.00;0.00;0.00
69746;PMS7003;57018;50.278;19.134;2022-08-21T08:15:05;0.00;0.00;0.00
69746;PMS7003;57018;50.278;19.134;2022-08-21T08:17:34;0.00;0.00;0.00
69746;PMS7003;57018;50.278;19.134;2022-08-21T08:20:00;0.50;0.50;0.25
69746;PMS7003;57018;50.278;19.134;2022-08-21T08:22:27;2.00;0.00;0.00
69746;PMS7003;57018;50.278;19.134;2022-08-21T08:24:54;0.00;0.00;0.00
69746;PMS7003;57018;50.278;19.134;2022-08-21T08:27:21;1.00;0.75;0.00
69746;PMS7003;57018;50.278;19.134;2022-08-21T08:29:48;0.75;0.75;0.00
69746;PMS7003;57018;50.278;19.134;2022-08-21T08:32:16;0.00;0.00;0.00
69746;PMS7003;57018;50.278;19.134;2022-08-21T08:34:42;0.75;0.75;0.00
69746;PMS7003;57018;50.278;19.134;2022-08-21T08:37:09;0.50;0.50;0.00
69746;PMS7003;57018;50.278;19.134;2022-08-21T08:39:36;0.00;0.00;0.00
69746;PMS7003;57018;50.278;19.134;2022-08-21T08:44:32;0.00;0.00;0.00
69746;PMS7003;57018;50.278;19.134;2022-08-21T08:46:59;0.00;0.00;0.00
69746;PMS7003;57018;50.278;19.134;2022-08-21T08:51:57;0.00;0.00;0.00
69746;PMS7003;57018;50.278;19.134;2022-08-21T08:54:37;0.00;0.00;0.00
69746;PMS7003;57018;50.278;19.134;2022-08-21T08:57:03;0.00;0.00;0.00
69746;PMS7003;57018;50.278;19.134;2022-08-21T08:59:35;1.00;0.00;0.00
69746;PMS7003;57018;50.278;19.134;2022-08-21T09:02:13;0.00;0.00;0.00
69746;PMS7003;57018;50.278;19.134;2022-08-21T09:04:41;0.25;0.25;0.00
69746;PMS7003;57018;50.278;19.134;2022-08-21T09:10:03;0.25;0.25;0.00
69746;PMS7003;57018;50.278;19.134;2022-08-21T09:17:53;0.00;0.00;0.00
69746;PMS7003;57018;50.278;19.134;2022-08-21T09:20:28;0.00;0.00;0.00
69746;PMS7003;57018;50.278;19.134;2022-08-21T09:25:32;0.00;0.00;0.00
69746;PMS7003;57018;50.278;19.134;2022-08-21T09:28:01;0.00;0.00;0.00
69746;PMS7003;57018;50.278;19.134;2022-08-21T09:30:29;0.00;0.00;0.00
69746;PMS7003;57018;50.278;19.134;2022-08-21T09:32:57;0.00;0.00;0.00
69746;PMS7003;57018;50.278;19.134;2022-08-21T09:35:24;0.00;0.00;0.00
69746;PMS7003;57018;50.278;19.134;2022-08-21T09:40:38;0.00;0.00;0.00
69746;PMS7003;57018;50.278;19.134;2022-08-21T09:43:15;0.25;0.00;0.00
69746;PMS7003;57018;50.278;19.134;2022-08-21T09:45:40;0.25;0.25;0.00
69746;PMS7003;57018;50.278;19.134;2022-08-21T09:48:12;1.75;0.25;0.00
69746;PMS7003;57018;50.278;19.134;2022-08-21T09:50:37;1.00;0.00;0.00
69746;PMS7003;57018;50.278;19.134;2022-08-21T09:53:05;0.00;0.00;0.00
69746;PMS7003;57018;50.278;19.134;2022-08-21T09:55:46;1.00;1.00;0.00
69746;PMS7003;57018;50.278;19.134;2022-08-21T09:58:43;1.00;1.00;0.25
69746;PMS7003;57018;50.278;19.134;2022-08-21T10:01:29;0.75;0.75;0.00
69746;PMS7003;57018;50.278;19.134;2022-08-21T10:03:44;0.00;0.00;0.00
69746;PMS7003;57018;50.278;19.134;2022-08-21T10:06:19;1.00;1.00;0.75
69746;PMS7003;57018;50.278;19.134;2022-08-21T10:08:49;1.00;1.00;0.75
69746;PMS7003;57018;50.278;19.134;2022-08-21T10:11:16;0.00;0.00;0.00
69746;PMS7003;57018;50.278;19.134;2022-08-21T10:19:05;1.00;1.00;1.00
69746;PMS7003;57018;50.278;19.134;2022-08-21T10:21:40;2.00;2.00;1.00
69746;PMS7003;57018;50.278;19.134;2022-08-21T10:24:19;2.00;1.25;1.50
69746;PMS7003;57018;50.278;19.134;2022-08-21T10:26:57;0.75;0.75;0.25
69746;PMS7003;57018;50.278;19.134;2022-08-21T10:37:31;0.25;0.25;0.00
69746;PMS7003;57018;50.278;19.134;2022-08-21T10:39:50;2.50;2.50;1.00
69746;PMS7003;57018;50.278;19.134;2022-08-21T10:42:37;2.00;2.00;1.00
69746;PMS7003;57018;50.278;19.134;2022-08-21T10:45:14;0.50;0.50;0.50
69746;PMS7003;57018;50.278;19.134;2022-08-21T10:47:53;1.00;1.00;0.00
69746;PMS7003;57018;50.278;19.134;2022-08-21T10:50:39;1.75;1.75;0.25
69746;PMS7003;57018;50.278;19.134;2022-08-21T10:56:02;1.00;1.00;1.00
69746;PMS7003;57018;50.278;19.134;2022-08-21T11:01:41;0.00;0.00;0.00
69746;PMS7003;57018;50.278;19.134;2022-08-21T11:04:11;1.00;1.00;0.00
69746;PMS7003;57018;50.278;19.134;2022-08-21T11:07:15;1.50;0.00;0.00
69746;PMS7003;57018;50.278;19.134;2022-08-21T11:09:38;1.00;1.00;-0.25
69746;PMS7003;57018;50.278;19.134;2022-08-21T11:14:45;2.00;2.00;1.00
69746;PMS7003;57018;50.278;19.134;2022-08-21T11:17:37;1.00;1.00;1.00
69746;PMS7003;57018;50.278;19.134;2022-08-21T11:20:12;1.00;1.00;0.50
69746;PMS7003;57018;50.278;19.134;2022-08-21T11:22:41;1.00;1.00;1.00
69746;PMS7003;57018;50.278;19.134;2022-08-21T11:25:34;3.00;2.00;0.75
69746;PMS7003;57018;50.278;19.134;2022-08-21T11:39:24;2.00;2.00;2.00
69746;PMS7003;57018;50.278;19.134;2022-08-21T11:42:15;1.00;1.00;1.00
69746;PMS7003;57018;50.278;19.134;2022-08-21T11:47:01;3.00;3.00;2.00
69746;PMS7003;57018;50.278;19.134;2022-08-21T11:49:41;3.00;2.50;2.00
69746;PMS7003;57018;50.278;19.134;2022-08-21T11:52:12;1.00;1.00;1.00
69746;PMS7003;57018;50.278;19.134;2022-08-21T11:57:25;2.00;2.00;1.75
69746;PMS7003;57018;50.278;19.134;2022-08-21T12:02:39;3.50;2.25;2.00
69746;PMS7003;57018;50.278;19.134;2022-08-21T12:05:05;3.25;2.25;2.00
69746;PMS7003;57018;50.278;19.134;2022-08-21T12:07:41;3.00;3.00;2.00
69746;PMS7003;57018;50.278;19.134;2022-08-21T12:10:11;31.00;28.50;20.75
69746;PMS7003;57018;50.278;19.134;2022-08-21T12:12:40;16.50;16.50;13.25
69746;PMS7003;57018;50.278;19.134;2022-08-21T12:15:17;2.75;2.75;2.00
69746;PMS7003;57018;50.278;19.134;2022-08-21T12:25:38;4.00;3.00;2.50
69746;PMS7003;57018;50.278;19.134;2022-08-21T12:28:08;2.00;2.00;2.00
69746;PMS7003;57018;50.278;19.134;2022-08-21T12:30:40;4.50;4.00;3.00
69746;PMS7003;57018;50.278;19.134;2022-08-21T12:36:15;2.25;2.25;2.25
69746;PMS7003;57018;50.278;19.134;2022-08-21T12:38:57;3.50;3.00;2.00
69746;PMS7003;57018;50.278;19.134;2022-08-21T12:41:30;2.50;2.25;2.00
69746;PMS7003;57018;50.278;19.134;2022-08-21T12:44:03;3.00;3.00;2.25
69746;PMS7003;57018;50.278;19.134;2022-08-21T12:46:47;2.00;2.00;1.75
69746;PMS7003;57018;50.278;19.134;2022-08-21T12:49:19;3.00;3.00;2.75
69746;PMS7003;57018;50.278;19.134;2022-08-21T12:54:31;3.25;3.25;2.25
69746;PMS7003;57018;50.278;19.134;2022-08-21T12:57:03;3.50;3.50;3.25
69746;PMS7003;57018;50.278;19.134;2022-08-21T12:59:31;3.75;3.75;3.00
69746;PMS7003;57018;50.278;19.134;2022-08-21T13:02:00;7.00;6.00;5.00
69746;PMS7003;57018;50.278;19.134;2022-08-21T13:04:36;8.00;6.00;4.25
69746;PMS7003;57018;50.278;19.134;2022-08-21T13:07:07;5.00;4.00;3.00
69746;PMS7003;57018;50.278;19.134;2022-08-21T13:09:36;4.00;3.00;3.00
69746;PMS7003;57018;50.278;19.134;2022-08-21T13:12:18;4.25;4.25;4.00
69746;PMS7003;57018;50.278;19.134;2022-08-21T13:14:47;8.75;8.75;5.00
69746;PMS7003;57018;50.278;19.134;2022-08-21T13:17:22;5.25;5.00;4.00
69746;PMS7003;57018;50.278;19.134;2022-08-21T13:19:53;6.50;6.00;5.50
69746;PMS7003;57018;50.278;19.134;2022-08-21T13:22:21;6.25;6.00;4.75
69746;PMS7003;57018;50.278;19.134;2022-08-21T13:24:49;5.00;5.00;4.25
69746;PMS7003;57018;50.278;19.134;2022-08-21T13:27:24;5.00;5.00;4.00
69746;PMS7003;57018;50.278;19.134;2022-08-21T13:29:48;7.75;6.50;4.25
69746;PMS7003;57018;50.278;19.134;2022-08-21T13:32:20;6.75;6.75;5.00
69746;PMS7003;57018;50.278;19.134;2022-08-21T13:34:47;8.25;7.00;5.25
69746;PMS7003;57018;50.278;19.134;2022-08-21T13:37:13;5.50;5.50;4.75
69746;PMS7003;57018;50.278;19.134;2022-08-21T13:39:40;8.50;7.50;4.50
69746;PMS7003;57018;50.278;19.134;2022-08-21T13:42:08;6.50;5.00;4.00
69746;PMS7003;57018;50.278;19.134;2022-08-21T13:44:39;6.00;6.00;4.00
69746;PMS7003;57018;50.278;19.134;2022-08-21T13:47:12;7.25;7.25;6.00
69746;PMS7003;57018;50.278;19.134;2022-08-21T13:49:42;14.50;14.00;10.75
69746;PMS7003;57018;50.278;19.134;2022-08-21T13:52:18;18.25;17.50;11.00
69746;PMS7003;57018;50.278;19.134;2022-08-21T13:54:43;28.25;24.00;14.75
69746;PMS7003;57018;50.278;19.134;2022-08-21T13:57:17;22.25;19.25;11.75
69746;PMS7003;57018;50.278;19.134;2022-08-21T13:59:44;22.00;18.75;12.25
69746;PMS7003;57018;50.278;19.134;2022-08-21T14:02:16;21.50;17.25;12.25
69746;PMS7003;57018;50.278;19.134;2022-08-21T14:04:50;19.50;16.25;9.25
69746;PMS7003;57018;50.278;19.134;2022-08-21T14:07:19;16.25;15.50;8.75
69746;PMS7003;57018;50.278;19.134;2022-08-21T14:09:53;14.50;14.50;11.00
69746;PMS7003;57018;50.278;19.134;2022-08-21T14:12:28;16.50;14.75;10.50
69746;PMS7003;57018;50.278;19.134;2022-08-21T14:14:56;12.25;11.50;8.25
69746;PMS7003;57018;50.278;19.134;2022-08-21T14:17:26;20.25;14.75;9.00
69746;PMS7003;57018;50.278;19.134;2022-08-21T14:19:54;15.75;14.25;9.75
69746;PMS7003;57018;50.278;19.134;2022-08-21T14:22:32;17.00;15.50;9.25
69746;PMS7003;57018;50.278;19.134;2022-08-21T14:25:03;16.25;15.00;10.50
69746;PMS7003;57018;50.278;19.134;2022-08-21T14:27:48;12.25;11.00;8.25
69746;PMS7003;57018;50.278;19.134;2022-08-21T14:30:25;15.00;13.00;9.50
69746;PMS7003;57018;50.278;19.134;2022-08-21T14:32:46;10.50;10.50;6.75
69746;PMS7003;57018;50.278;19.134;2022-08-21T14:35:14;12.00;11.00;8.25
69746;PMS7003;57018;50.278;19.134;2022-08-21T14:37:43;10.75;9.00;7.00
69746;PMS7003;57018;50.278;19.134;2022-08-21T14:40:11;11.00;11.00;7.25
69746;PMS7003;57018;50.278;19.134;2022-08-21T14:42:38;10.75;10.75;7.25
69746;PMS7003;57018;50.278;19.134;2022-08-21T14:45:13;12.00;12.00;8.00
69746;PMS7003;57018;50.278;19.134;2022-08-21T14:47:39;9.75;9.75;6.25
69746;PMS7003;57018;50.278;19.134;2022-08-21T14:50:06;13.00;12.25;8.25
69746;PMS7003;57018;50.278;19.134;2022-08-21T14:52:32;10.50;9.50;6.50
69746;PMS7003;57018;50.278;19.134;2022-08-21T14:54:59;11.50;11.00;7.25
69746;PMS7003;57018;50.278;19.134;2022-08-21T14:57:26;8.50;8.25;6.25
69746;PMS7003;57018;50.278;19.134;2022-08-21T14:59:55;13.00;10.50;8.00
69746;PMS7003;57018;50.278;19.134;2022-08-21T15:02:22;10.25;10.00;6.25
69746;PMS7003;57018;50.278;19.134;2022-08-21T15:04:48;10.25;10.25;8.25
69746;PMS7003;57018;50.278;19.134;2022-08-21T15:07:14;15.75;14.75;7.75
69746;PMS7003;57018;50.278;19.134;2022-08-21T15:09:40;11.00;10.00;6.75
69746;PMS7003;57018;50.278;19.134;2022-08-21T15:12:07;11.50;9.25;7.25
69746;PMS7003;57018;50.278;19.134;2022-08-21T15:14:34;9.75;9.75;7.00